Time;durP1;ratioP1;P1;durP2;ratioP2;P2;SDS_P1;SDS_P2;PMS_P1;PMS_P2;Temp;Humidity;BMP_temperature;BMP_pressure;BME280_temperature;BME280_humidity;BME280_pressure;Samples;Min_cycle;Max_cycle;Signal;HPM_P1;HPM_P2
2023/03/05 00:02:23;;;;;;;9.33;2.07;;;;;;;;;;5047636;28;20185;-66
2023/03/05 00:04:48;;;;;;;7.40;2.10;;;;;;;;;;5059295;28;20193;-67
2023/03/05 00:07:13;;;;;;;8.10;1.87;;;;;;;;;;5050592;28;20236;-66
2023/03/05 00:09:39;;;;;;;9.40;1.93;;;;;;;;;;5051038;28;20597;-66
2023/03/05 00:12:05;;;;;;;14.23;2.17;;;;;;;;;;5068229;28;20215;-66
2023/03/05 00:14:31;;;;;;;10.77;2.00;;;;;;;;;;5054787;28;20585;-66
2023/03/05 00:16:56;;;;;;;10.73;2.17;;;;;;;;;;5049625;28;20213;-66
2023/03/05 00:19:21;;;;;;;6.70;1.77;;;;;;;;;;5065110;28;20312;-66
2023/03/05 00:21:47;;;;;;;13.63;2.73;;;;;;;;;;5067649;28;20204;-66
2023/03/05 00:24:16;;;;;;;7.53;1.77;;;;;;;;;;5057344;28;20186;-66
2023/03/05 00:26:42;;;;;;;9.40;2.20;;;;;;;;;;5042825;28;20517;-66
2023/03/05 00:29:08;;;;;;;13.20;2.70;;;;;;;;;;5069611;28;20177;-66
2023/03/05 00:31:35;;;;;;;8.70;2.77;;;;;;;;;;5066857;28;20188;-66
2023/03/05 00:34:04;;;;;;;9.70;1.83;;;;;;;;;;5067917;28;20233;-66
2023/03/05 00:36:30;;;;;;;10.97;2.37;;;;;;;;;;5048610;28;20405;-66
2023/03/05 00:38:56;;;;;;;11.87;2.30;;;;;;;;;;5047716;28;20178;-66
2023/03/05 00:41:22;;;;;;;14.73;2.07;;;;;;;;;;5058068;28;20181;-66
2023/03/05 00:43:47;;;;;;;8.57;1.63;;;;;;;;;;5051834;28;20196;-66
2023/03/05 00:46:13;;;;;;;13.77;2.37;;;;;;;;;;5048216;28;20750;-66
2023/03/05 00:48:38;;;;;;;9.93;2.40;;;;;;;;;;5048349;28;20547;-66
2023/03/05 00:51:04;;;;;;;10.40;2.10;;;;;;;;;;5054109;28;20178;-66
2023/03/05 00:53:30;;;;;;;10.57;2.20;;;;;;;;;;5057582;28;20208;-66
2023/03/05 00:55:55;;;;;;;9.33;2.07;;;;;;;;;;5059209;28;20650;-66
2023/03/05 00:58:20;;;;;;;13.93;2.17;;;;;;;;;;5054602;28;20267;-67
2023/03/05 01:00:49;;;;;;;8.97;2.30;;;;;;;;;;5065892;28;20288;-67
2023/03/05 01:03:15;;;;;;;12.37;2.57;;;;;;;;;;5059180;28;20185;-66
2023/03/05 01:05:41;;;;;;;11.70;2.37;;;;;;;;;;5051601;28;20193;-66
2023/03/05 01:08:07;;;;;;;9.80;1.87;;;;;;;;;;5070579;28;20185;-66
2023/03/05 01:10:32;;;;;;;10.17;2.33;;;;;;;;;;5059038;28;20264;-66
2023/03/05 01:12:58;;;;;;;11.13;2.13;;;;;;;;;;5051574;28;20319;-66
2023/03/05 01:15:23;;;;;;;8.13;1.83;;;;;;;;;;5067191;28;20181;-66
2023/03/05 01:17:49;;;;;;;11.10;2.00;;;;;;;;;;5060675;28;20222;-66
2023/03/05 01:20:16;;;;;;;13.17;2.83;;;;;;;;;;5067588;28;20197;-66
2023/03/05 01:22:42;;;;;;;6.90;2.10;;;;;;;;;;5066470;28;20181;-66
2023/03/05 01:25:08;;;;;;;10.87;2.10;;;;;;;;;;5064454;28;20192;-66
2023/03/05 01:27:34;;;;;;;10.73;2.37;;;;;;;;;;5050978;28;20200;-66
2023/03/05 01:29:59;;;;;;;12.50;2.37;;;;;;;;;;5068961;28;20537;-67
2023/03/05 01:32:25;;;;;;;7.03;1.70;;;;;;;;;;5051862;28;20260;-66
2023/03/05 01:34:50;;;;;;;14.17;2.10;;;;;;;;;;5052215;28;20193;-66
2023/03/05 01:37:15;;;;;;;8.77;1.93;;;;;;;;;;5055081;28;20598;-66
2023/03/05 01:39:41;;;;;;;9.03;1.90;;;;;;;;;;5056125;28;20181;-67
2023/03/05 01:42:06;;;;;;;8.53;2.20;;;;;;;;;;5055046;28;20196;-66
2023/03/05 01:44:32;;;;;;;13.50;1.90;;;;;;;;;;5051692;28;20930;-66
2023/03/05 01:46:58;;;;;;;10.23;2.10;;;;;;;;;;5057598;28;20215;-66
2023/03/05 01:49:26;;;;;;;7.50;2.17;;;;;;;;;;5053773;28;20193;-66
2023/03/05 01:52:04;;;;;;;13.17;2.03;;;;;;;;;;5070020;28;20215;-66
2023/03/05 01:54:52;;;;;;;8.40;2.57;;;;;;;;;;5055591;28;20205;-66
2023/03/05 01:57:25;;;;;;;7.37;2.20;;;;;;;;;;5056896;28;20676;-66
2023/03/05 01:59:58;;;;;;;9.63;2.30;;;;;;;;;;5067713;28;20216;-65
2023/03/05 02:02:24;;;;;;;10.77;2.03;;;;;;;;;;5059148;28;20216;-66
2023/03/05 02:04:54;;;;;;;13.70;2.30;;;;;;;;;;5050478;28;20300;-66
2023/03/05 02:07:20;;;;;;;12.70;2.00;;;;;;;;;;5051927;28;20608;-66
2023/03/05 02:09:46;;;;;;;8.03;1.70;;;;;;;;;;5049756;28;20181;-66
2023/03/05 02:12:12;;;;;;;7.47;1.77;;;;;;;;;;5053940;28;20186;-66
2023/03/05 02:14:41;;;;;;;9.47;2.20;;;;;;;;;;5057300;28;20219;-66
2023/03/05 02:17:08;;;;;;;6.77;1.90;;;;;;;;;;5055081;28;20220;-65
2023/03/05 02:19:52;;;;;;;11.37;2.10;;;;;;;;;;5055216;28;20185;-66
2023/03/05 02:22:19;;;;;;;8.50;1.70;;;;;;;;;;5061011;28;20292;-66
2023/03/05 02:24:45;;;;;;;8.93;1.93;;;;;;;;;;5070596;28;20271;-66
2023/03/05 02:27:12;;;;;;;6.77;1.93;;;;;;;;;;5057649;28;20254;-66
2023/03/05 02:29:41;;;;;;;8.23;2.10;;;;;;;;;;5050313;28;20209;-66
2023/03/05 02:32:08;;;;;;;9.60;2.73;;;;;;;;;;5057206;28;20196;-66
2023/03/05 02:34:34;;;;;;;7.53;1.80;;;;;;;;;;5051948;28;20315;-66
2023/03/05 02:37:01;;;;;;;6.97;1.53;;;;;;;;;;5060326;28;20192;-66
2023/03/05 02:39:27;;;;;;;11.43;1.40;;;;;;;;;;5063210;28;20185;-66
2023/03/05 02:41:52;;;;;;;8.90;1.50;;;;;;;;;;5048455;28;20204;-66
2023/03/05 02:44:17;;;;;;;5.07;1.33;;;;;;;;;;5050852;28;20200;-66
2023/03/05 02:46:43;;;;;;;9.40;1.33;;;;;;;;;;5064134;28;20350;-65
2023/03/05 02:49:08;;;;;;;6.77;1.30;;;;;;;;;;5069311;28;20189;-66
2023/03/05 02:51:34;;;;;;;7.77;1.40;;;;;;;;;;5055856;28;20213;-66
2023/03/05 02:53:59;;;;;;;5.97;1.40;;;;;;;;;;5068076;28;20246;-66
2023/03/05 02:56:24;;;;;;;8.07;1.60;;;;;;;;;;5068609;28;20185;-66
2023/03/05 02:58:50;;;;;;;9.27;1.30;;;;;;;;;;5064766;28;20208;-67
2023/03/05 03:01:15;;;;;;;4.63;1.30;;;;;;;;;;5049721;28;20205;-66
2023/03/05 03:03:40;;;;;;;8.07;1.67;;;;;;;;;;5053217;28;20600;-66
2023/03/05 03:06:06;;;;;;;7.00;1.50;;;;;;;;;;5051008;28;20211;-66
2023/03/05 03:08:31;;;;;;;11.37;2.13;;;;;;;;;;5066615;28;20200;-65
2023/03/05 03:11:03;;;;;;;5.60;1.57;;;;;;;;;;5060447;28;20193;-66
2023/03/05 03:13:29;;;;;;;7.60;1.70;;;;;;;;;;5050067;28;20220;-65
2023/03/05 03:16:02;;;;;;;4.67;1.70;;;;;;;;;;5077928;28;20181;-66
2023/03/05 03:18:28;;;;;;;9.27;1.43;;;;;;;;;;5065444;28;20184;-65
2023/03/05 03:20:53;;;;;;;7.60;1.43;;;;;;;;;;5051713;28;20546;-66
2023/03/05 03:23:18;;;;;;;8.87;1.73;;;;;;;;;;5063382;28;20737;-66
2023/03/05 03:25:44;;;;;;;5.73;1.23;;;;;;;;;;5053975;28;20193;-65
2023/03/05 03:28:09;;;;;;;8.17;1.47;;;;;;;;;;5061061;28;20181;-65
2023/03/05 03:30:34;;;;;;;7.27;1.57;;;;;;;;;;5050992;28;20189;-66
2023/03/05 03:33:00;;;;;;;8.00;1.60;;;;;;;;;;5055884;28;20581;-66
2023/03/05 03:35:25;;;;;;;5.90;1.50;;;;;;;;;;5055833;28;20205;-66
2023/03/05 03:37:50;;;;;;;10.53;1.70;;;;;;;;;;5060847;28;20242;-66
2023/03/05 03:40:16;;;;;;;9.10;1.43;;;;;;;;;;5062850;28;20283;-66
2023/03/05 03:42:41;;;;;;;8.30;1.30;;;;;;;;;;5052067;28;20564;-66
2023/03/05 03:45:07;;;;;;;8.30;2.63;;;;;;;;;;5051386;28;20219;-66
2023/03/05 03:47:33;;;;;;;6.13;1.33;;;;;;;;;;5054496;28;20207;-66
2023/03/05 03:49:58;;;;;;;7.10;1.50;;;;;;;;;;5053521;28;20617;-66
2023/03/05 03:52:23;;;;;;;8.67;1.33;;;;;;;;;;5067584;28;20228;-66
2023/03/05 03:54:51;;;;;;;8.60;1.47;;;;;;;;;;5067887;28;20204;-66
2023/03/05 03:57:16;;;;;;;9.07;1.23;;;;;;;;;;5066641;28;20173;-66
2023/03/05 03:59:44;;;;;;;5.07;1.10;;;;;;;;;;5053336;28;20192;-66
2023/03/05 04:02:09;;;;;;;7.97;1.30;;;;;;;;;;5053216;28;20181;-66
2023/03/05 04:04:35;;;;;;;5.70;1.13;;;;;;;;;;5056249;28;20235;-66
2023/03/05 04:07:00;;;;;;;5.43;1.17;;;;;;;;;;5055524;28;20262;-66
2023/03/05 04:09:25;;;;;;;5.07;1.30;;;;;;;;;;5048304;28;20221;-66
2023/03/05 04:11:51;;;;;;;4.07;0.97;;;;;;;;;;5051522;28;20181;-66
2023/03/05 04:14:16;;;;;;;7.10;1.30;;;;;;;;;;5052032;28;20201;-66
2023/03/05 04:16:41;;;;;;;7.07;1.20;;;;;;;;;;5054175;28;20265;-66
2023/03/05 04:19:07;;;;;;;8.00;1.40;;;;;;;;;;5056222;28;20185;-66
2023/03/05 04:21:32;;;;;;;3.67;1.10;;;;;;;;;;5049353;28;20193;-66
2023/03/05 04:23:58;;;;;;;8.07;1.60;;;;;;;;;;5055028;28;20186;-67
2023/03/05 04:26:23;;;;;;;5.40;1.37;;;;;;;;;;5060302;28;20234;-66
2023/03/05 04:28:48;;;;;;;8.93;1.40;;;;;;;;;;5050235;28;20216;-66
2023/03/05 04:31:14;;;;;;;11.13;2.03;;;;;;;;;;5053093;28;20197;-66
2023/03/05 04:33:39;;;;;;;9.20;1.50;;;;;;;;;;5059640;28;20224;-66
2023/03/05 04:36:05;;;;;;;7.33;1.37;;;;;;;;;;5053354;28;20657;-66
2023/03/05 04:38:31;;;;;;;6.63;1.50;;;;;;;;;;5061713;28;20184;-66
2023/03/05 04:40:56;;;;;;;6.57;1.67;;;;;;;;;;5066191;28;20197;-67
2023/03/05 04:43:21;;;;;;;8.00;1.37;;;;;;;;;;5058795;28;20197;-66
2023/03/05 04:45:47;;;;;;;4.57;1.60;;;;;;;;;;5066156;28;20189;-66
2023/03/05 04:48:12;;;;;;;7.23;1.87;;;;;;;;;;5055815;28;20185;-66
2023/03/05 04:50:38;;;;;;;10.47;1.70;;;;;;;;;;5058193;28;20236;-66
2023/03/05 04:53:05;;;;;;;6.67;2.00;;;;;;;;;;5064383;28;20257;-66
2023/03/05 04:55:30;;;;;;;5.47;1.50;;;;;;;;;;5053894;28;20189;-65
2023/03/05 04:57:56;;;;;;;13.20;2.13;;;;;;;;;;5054952;28;20270;-66
2023/03/05 05:00:21;;;;;;;7.30;1.50;;;;;;;;;;5053707;28;20215;-66
2023/03/05 05:02:49;;;;;;;8.73;1.60;;;;;;;;;;5069039;28;20468;-66
2023/03/05 05:05:18;;;;;;;9.67;2.30;;;;;;;;;;5053280;28;20193;-66
2023/03/05 05:07:43;;;;;;;9.10;1.73;;;;;;;;;;5055961;28;20181;-66
2023/03/05 05:10:10;;;;;;;11.20;1.83;;;;;;;;;;5059085;28;20270;-68
2023/03/05 05:12:36;;;;;;;6.47;1.50;;;;;;;;;;5061277;28;20234;-68
2023/03/05 05:15:03;;;;;;;10.30;1.77;;;;;;;;;;5051300;28;20280;-68
2023/03/05 05:17:31;;;;;;;7.60;1.57;;;;;;;;;;5065021;28;20177;-68
2023/03/05 05:19:57;;;;;;;8.97;1.60;;;;;;;;;;5059370;28;20198;-68
2023/03/05 05:22:23;;;;;;;5.97;1.80;;;;;;;;;;5053139;28;20200;-69
2023/03/05 05:24:48;;;;;;;8.47;1.63;;;;;;;;;;5052877;28;20201;-69
2023/03/05 05:27:14;;;;;;;9.40;1.87;;;;;;;;;;5062655;28;20255;-68
2023/03/05 05:29:39;;;;;;;8.27;1.97;;;;;;;;;;5061641;28;20189;-70
2023/03/05 05:32:05;;;;;;;12.43;2.50;;;;;;;;;;5062745;28;20211;-69
2023/03/05 05:34:30;;;;;;;10.73;2.43;;;;;;;;;;5057525;28;20281;-71
2023/03/05 05:36:55;;;;;;;6.93;2.23;;;;;;;;;;5060393;28;20276;-73
2023/03/05 05:39:21;;;;;;;9.17;2.47;;;;;;;;;;5057313;28;20211;-72
2023/03/05 05:41:50;;;;;;;9.30;2.37;;;;;;;;;;5058311;28;20276;-71
2023/03/05 05:44:16;;;;;;;10.57;2.30;;;;;;;;;;5060187;28;20204;-71
2023/03/05 05:46:41;;;;;;;11.80;2.57;;;;;;;;;;5067126;28;20262;-71
2023/03/05 05:49:06;;;;;;;9.27;2.10;;;;;;;;;;5066022;28;20215;-71
2023/03/05 05:51:32;;;;;;;7.70;2.67;;;;;;;;;;5063184;28;20725;-71
2023/03/05 05:53:57;;;;;;;11.13;2.60;;;;;;;;;;5061357;28;20216;-71
2023/03/05 05:56:23;;;;;;;6.07;2.10;;;;;;;;;;5068709;28;20197;-71
2023/03/05 05:58:48;;;;;;;11.30;2.33;;;;;;;;;;5063501;28;20192;-71
2023/03/05 06:01:28;;;;;;;8.50;2.37;;;;;;;;;;5053975;28;20352;-70
2023/03/05 06:03:53;;;;;;;13.37;2.37;;;;;;;;;;5059996;28;20188;-70
2023/03/05 06:06:22;;;;;;;8.40;2.33;;;;;;;;;;5053854;28;20643;-70
2023/03/05 06:08:49;;;;;;;8.30;2.30;;;;;;;;;;5050739;28;20208;-70
2023/03/05 06:11:14;;;;;;;8.77;2.40;;;;;;;;;;5050578;28;20410;-69
2023/03/05 06:13:40;;;;;;;8.67;2.00;;;;;;;;;;5060974;28;20315;-69
2023/03/05 06:16:10;;;;;;;9.03;2.40;;;;;;;;;;5050618;28;20197;-69
2023/03/05 06:18:35;;;;;;;5.83;2.43;;;;;;;;;;5069572;28;20568;-69
2023/03/05 06:21:06;;;;;;;9.13;2.10;;;;;;;;;;5051352;28;20196;-68
2023/03/05 06:23:33;;;;;;;6.77;2.67;;;;;;;;;;5048369;28;20207;-69
2023/03/05 06:26:00;;;;;;;7.43;2.20;;;;;;;;;;5062405;28;20189;-70
2023/03/05 06:28:26;;;;;;;9.60;2.50;;;;;;;;;;5056991;28;20208;-69
2023/03/05 06:31:06;;;;;;;6.73;2.10;;;;;;;;;;5052701;28;20339;-69
2023/03/05 06:33:32;;;;;;;13.33;3.03;;;;;;;;;;5050220;28;20539;-68
2023/03/05 06:35:58;;;;;;;7.53;2.13;;;;;;;;;;5056259;28;20193;-68
2023/03/05 06:38:24;;;;;;;8.80;2.17;;;;;;;;;;5058674;28;20260;-69
2023/03/05 06:40:49;;;;;;;12.33;2.80;;;;;;;;;;5065206;28;20271;-69
2023/03/05 06:43:15;;;;;;;11.63;2.23;;;;;;;;;;5054224;28;20193;-69
2023/03/05 06:45:40;;;;;;;10.13;2.27;;;;;;;;;;5063721;28;20181;-69
2023/03/05 06:48:06;;;;;;;5.17;2.10;;;;;;;;;;5055905;28;20199;-69
2023/03/05 06:50:35;;;;;;;9.23;2.70;;;;;;;;;;5052863;28;20638;-69
2023/03/05 06:53:01;;;;;;;12.57;2.40;;;;;;;;;;5059221;28;20209;-69
2023/03/05 06:55:26;;;;;;;8.27;1.97;;;;;;;;;;5068598;28;20211;-68
2023/03/05 06:57:51;;;;;;;8.47;2.20;;;;;;;;;;5051005;28;20340;-69
2023/03/05 07:00:17;;;;;;;9.57;2.43;;;;;;;;;;5055722;28;20213;-68
2023/03/05 07:02:42;;;;;;;9.07;2.50;;;;;;;;;;5050491;28;20404;-69
2023/03/05 07:05:08;;;;;;;6.13;2.13;;;;;;;;;;5059029;28;20197;-68
2023/03/05 07:07:34;;;;;;;9.17;2.30;;;;;;;;;;5053419;28;20193;-69
2023/03/05 07:09:59;;;;;;;9.43;2.23;;;;;;;;;;5057910;28;20225;-68
2023/03/05 07:12:25;;;;;;;7.03;2.10;;;;;;;;;;5054825;28;20220;-68
2023/03/05 07:14:50;;;;;;;7.57;1.80;;;;;;;;;;5050716;28;20657;-68
2023/03/05 07:17:16;;;;;;;10.03;2.47;;;;;;;;;;5050539;28;20236;-68
2023/03/05 07:19:42;;;;;;;7.33;1.87;;;;;;;;;;5051900;28;20570;-68
2023/03/05 07:22:08;;;;;;;13.53;2.07;;;;;;;;;;5051678;28;20201;-68
2023/03/05 07:24:33;;;;;;;4.73;1.90;;;;;;;;;;5054189;28;20236;-68
2023/03/05 07:26:59;;;;;;;7.50;2.10;;;;;;;;;;5050487;28;20435;-69
2023/03/05 07:29:25;;;;;;;8.60;1.63;;;;;;;;;;5049575;28;20267;-68
2023/03/05 07:31:51;;;;;;;8.33;2.20;;;;;;;;;;5049076;28;20240;-69
2023/03/05 07:34:16;;;;;;;5.37;1.70;;;;;;;;;;5050729;28;20260;-68
2023/03/05 07:36:42;;;;;;;9.37;1.70;;;;;;;;;;5050003;28;20197;-68
2023/03/05 07:39:09;;;;;;;6.30;1.90;;;;;;;;;;5053516;28;20264;-69
2023/03/05 07:41:34;;;;;;;5.53;1.70;;;;;;;;;;5058030;28;20720;-68
2023/03/05 07:44:00;;;;;;;3.40;1.50;;;;;;;;;;5052111;28;20201;-68
2023/03/05 07:46:28;;;;;;;4.27;1.53;;;;;;;;;;5053389;28;20247;-68
2023/03/05 07:48:54;;;;;;;9.43;1.97;;;;;;;;;;5054890;28;20200;-68
2023/03/05 07:51:20;;;;;;;4.43;1.47;;;;;;;;;;5056216;28;20685;-68
2023/03/05 07:53:48;;;;;;;4.83;1.40;;;;;;;;;;5054583;28;20663;-68
2023/03/05 07:56:19;;;;;;;4.70;1.50;;;;;;;;;;5051932;28;20184;-68
2023/03/05 07:58:44;;;;;;;5.67;1.40;;;;;;;;;;5054492;28;20424;-69
2023/03/05 08:01:12;;;;;;;4.23;1.70;;;;;;;;;;5051456;28;20216;-68
2023/03/05 08:03:38;;;;;;;2.97;1.40;;;;;;;;;;5047611;28;20189;-68
2023/03/05 08:06:05;;;;;;;5.80;1.50;;;;;;;;;;5064643;28;20192;-68
2023/03/05 08:08:31;;;;;;;3.50;1.30;;;;;;;;;;5068534;28;20180;-68
2023/03/05 08:11:05;;;;;;;4.97;1.20;;;;;;;;;;5058637;28;20193;-68
2023/03/05 08:13:30;;;;;;;5.70;1.20;;;;;;;;;;5061518;28;20288;-68
2023/03/05 08:15:56;;;;;;;3.30;0.93;;;;;;;;;;5058217;28;20723;-68
2023/03/05 08:18:22;;;;;;;4.00;1.10;;;;;;;;;;5062457;28;20197;-68
2023/03/05 08:20:47;;;;;;;4.40;0.93;;;;;;;;;;5053645;28;20216;-68
2023/03/05 08:23:13;;;;;;;4.47;0.93;;;;;;;;;;5051423;28;20182;-68
2023/03/05 08:25:38;;;;;;;2.40;1.03;;;;;;;;;;5053305;28;20186;-68
2023/03/05 08:28:03;;;;;;;2.20;0.90;;;;;;;;;;5060107;28;20192;-68
2023/03/05 08:30:29;;;;;;;2.07;0.83;;;;;;;;;;5064783;28;20204;-69
2023/03/05 08:32:54;;;;;;;2.80;0.80;;;;;;;;;;5055662;28;20311;-68
2023/03/05 08:35:20;;;;;;;2.97;0.90;;;;;;;;;;5052477;28;20765;-68
2023/03/05 08:37:45;;;;;;;2.00;0.70;;;;;;;;;;5053570;28;20254;-68
2023/03/05 08:40:11;;;;;;;3.90;0.90;;;;;;;;;;5057448;28;20532;-68
2023/03/05 08:42:37;;;;;;;3.13;0.97;;;;;;;;;;5056795;28;20204;-68
2023/03/05 08:45:02;;;;;;;2.40;0.90;;;;;;;;;;5057449;28;20185;-68
2023/03/05 08:47:28;;;;;;;5.77;1.07;;;;;;;;;;5052591;28;20177;-68
2023/03/05 08:49:54;;;;;;;4.00;1.10;;;;;;;;;;5054221;28;20182;-68
2023/03/05 08:52:20;;;;;;;1.63;0.73;;;;;;;;;;5062690;28;20184;-67
2023/03/05 08:54:46;;;;;;;4.00;1.20;;;;;;;;;;5053470;28;20535;-69
2023/03/05 08:57:11;;;;;;;6.73;1.20;;;;;;;;;;5059565;28;20178;-67
2023/03/05 08:59:37;;;;;;;4.37;0.87;;;;;;;;;;5052843;28;20349;-68
2023/03/05 09:02:03;;;;;;;2.17;1.00;;;;;;;;;;5055602;28;20200;-67
2023/03/05 09:04:28;;;;;;;3.33;0.87;;;;;;;;;;5061744;28;20185;-67
2023/03/05 09:06:54;;;;;;;9.20;1.17;;;;;;;;;;5061645;28;20547;-67
2023/03/05 09:09:22;;;;;;;2.57;0.70;;;;;;;;;;5061536;28;20188;-68
2023/03/05 09:11:48;;;;;;;5.20;0.80;;;;;;;;;;5058835;28;20670;-68
2023/03/05 09:14:13;;;;;;;2.93;0.90;;;;;;;;;;5058560;28;20217;-67
2023/03/05 09:16:41;;;;;;;7.33;0.80;;;;;;;;;;5055125;28;20193;-68
2023/03/05 09:19:09;;;;;;;3.50;0.93;;;;;;;;;;5056935;28;20266;-67
2023/03/05 09:21:35;;;;;;;9.13;1.10;;;;;;;;;;5058970;28;20193;-67
2023/03/05 09:24:01;;;;;;;3.63;0.60;;;;;;;;;;5057527;28;20281;-69
2023/03/05 09:26:26;;;;;;;8.00;1.10;;;;;;;;;;5056734;28;20268;-67
2023/03/05 09:28:52;;;;;;;7.47;0.80;;;;;;;;;;5051769;28;20632;-67
2023/03/05 09:31:17;;;;;;;3.93;0.80;;;;;;;;;;5052837;28;20196;-67
2023/03/05 09:33:43;;;;;;;3.03;0.77;;;;;;;;;;5053506;28;20648;-67
2023/03/05 09:36:18;;;;;;;4.50;0.87;;;;;;;;;;5050084;28;20193;-68
2023/03/05 09:38:44;;;;;;;5.77;1.70;;;;;;;;;;5052006;28;20193;-67
2023/03/05 09:41:44;;;;;;;4.63;0.70;;;;;;;;;;5064889;28;20195;-69
2023/03/05 09:44:09;;;;;;;4.00;0.63;;;;;;;;;;5055380;28;21072;-67
2023/03/05 09:46:51;;;;;;;2.67;0.57;;;;;;;;;;5041611;28;20184;-67
2023/03/05 09:49:46;;;;;;;3.13;0.50;;;;;;;;;;5063180;28;20240;-67
2023/03/05 09:52:20;;;;;;;3.60;0.67;;;;;;;;;;5059288;28;20231;-67
2023/03/05 09:54:51;;;;;;;1.10;0.40;;;;;;;;;;5052871;28;20207;-68
2023/03/05 09:57:23;;;;;;;3.83;0.50;;;;;;;;;;5054954;28;20185;-67
2023/03/05 10:00:00;;;;;;;2.57;0.33;;;;;;;;;;5049712;28;20415;-67
2023/03/05 10:02:30;;;;;;;2.47;0.43;;;;;;;;;;5051344;28;20211;-67
2023/03/05 10:05:18;;;;;;;5.83;0.70;;;;;;;;;;5050153;28;20197;-66
2023/03/05 10:07:54;;;;;;;2.37;0.47;;;;;;;;;;5051187;28;20201;-67
2023/03/05 10:10:27;;;;;;;3.63;0.87;;;;;;;;;;5063508;28;20267;-67
2023/03/05 10:13:00;;;;;;;3.47;0.40;;;;;;;;;;5054944;28;20203;-67
2023/03/05 10:15:39;;;;;;;2.20;0.40;;;;;;;;;;5058574;28;20189;-67
2023/03/05 10:18:22;;;;;;;3.60;0.50;;;;;;;;;;5056656;28;20201;-67
2023/03/05 10:21:20;;;;;;;5.57;0.60;;;;;;;;;;5056286;28;20299;-67
2023/03/05 10:24:04;;;;;;;4.22;0.45;;;;;;;;;;5068372;28;20201;-67
2023/03/05 10:26:57;;;;;;;3.15;0.70;;;;;;;;;;5060609;28;20224;-67
2023/03/05 10:29:41;;;;;;;6.90;0.80;;;;;;;;;;5053863;28;20181;-67
2023/03/05 10:32:21;;;;;;;4.03;0.43;;;;;;;;;;5064172;28;20186;-67
2023/03/05 10:35:11;;;;;;;5.37;0.87;;;;;;;;;;5039948;28;20247;-67
2023/03/05 10:37:43;;;;;;;2.78;0.50;;;;;;;;;;5059844;28;20234;-67
2023/03/05 10:40:33;;;;;;;7.05;0.73;;;;;;;;;;5053153;28;20190;-67
2023/03/05 10:43:36;;;;;;;7.20;0.50;;;;;;;;;;5050715;28;20260;-68
2023/03/05 10:46:03;;;;;;;3.75;0.70;;;;;;;;;;5064421;28;20180;-66
2023/03/05 10:48:53;;;;;;;6.10;0.82;;;;;;;;;;5048850;28;20390;-67
2023/03/05 10:51:34;;;;;;;8.70;0.80;;;;;;;;;;5051092;28;20208;-67
2023/03/05 10:54:24;;;;;;;3.10;0.63;;;;;;;;;;5054092;28;20209;-65
2023/03/05 10:56:50;;;;;;;3.97;0.60;;;;;;;;;;5049628;28;20561;-68
2023/03/05 10:59:15;;;;;;;5.50;1.13;;;;;;;;;;5050851;28;20235;-67
2023/03/05 11:01:40;;;;;;;6.43;0.95;;;;;;;;;;5050770;28;20196;-66
2023/03/05 11:04:23;;;;;;;6.97;0.80;;;;;;;;;;5053485;28;20193;-67
2023/03/05 11:06:49;;;;;;;3.30;0.65;;;;;;;;;;5056082;28;20220;-67
2023/03/05 11:09:28;;;;;;;7.78;1.00;;;;;;;;;;5063457;28;20232;-68
2023/03/05 11:12:08;;;;;;;8.55;0.88;;;;;;;;;;5048596;28;20632;-66
2023/03/05 11:14:37;;;;;;;6.45;0.55;;;;;;;;;;5053355;28;20266;-66
2023/03/05 11:17:23;;;;;;;5.78;0.40;;;;;;;;;;5062421;28;20200;-66
2023/03/05 11:19:49;;;;;;;4.97;1.10;;;;;;;;;;5055196;28;20180;-66
2023/03/05 11:22:20;;;;;;;6.95;0.90;;;;;;;;;;5052145;28;20193;-66
2023/03/05 11:25:02;;;;;;;4.40;0.70;;;;;;;;;;5052769;28;20181;-66
2023/03/05 11:27:34;;;;;;;6.32;1.00;;;;;;;;;;5055517;28;20185;-66
2023/03/05 11:30:00;;;;;;;2.97;0.98;;;;;;;;;;5048164;28;20803;-66
2023/03/05 11:32:27;;;;;;;2.83;0.57;;;;;;;;;;5056062;28;20221;-65
2023/03/05 11:34:54;;;;;;;5.28;0.77;;;;;;;;;;5050663;28;20685;-65
2023/03/05 11:37:29;;;;;;;5.15;0.82;;;;;;;;;;5049265;28;20198;-65
2023/03/05 11:40:26;;;;;;;5.72;1.20;;;;;;;;;;5061109;28;20271;-66
2023/03/05 11:42:56;;;;;;;3.20;1.10;;;;;;;;;;5051284;28;20542;-66
2023/03/05 11:45:23;;;;;;;3.45;0.85;;;;;;;;;;5051119;28;20227;-67
2023/03/05 11:47:55;;;;;;;5.88;1.13;;;;;;;;;;5051207;28;20216;-65
2023/03/05 11:50:27;;;;;;;5.03;0.52;;;;;;;;;;5059914;28;20659;-66
2023/03/05 11:52:54;;;;;;;3.67;0.75;;;;;;;;;;5057716;28;20192;-66
2023/03/05 11:55:33;;;;;;;2.20;0.50;;;;;;;;;;5058358;28;20650;-65
2023/03/05 11:58:04;;;;;;;3.90;0.63;;;;;;;;;;5057191;28;20219;-66
2023/03/05 12:00:31;;;;;;;6.30;1.38;;;;;;;;;;5049281;28;20274;-66
2023/03/05 12:03:00;;;;;;;6.90;0.65;;;;;;;;;;5058811;28;20193;-66
2023/03/05 12:05:27;;;;;;;4.80;1.00;;;;;;;;;;5054147;28;20322;-65
2023/03/05 12:07:58;;;;;;;4.38;0.40;;;;;;;;;;5062247;28;20219;-66
2023/03/05 12:10:24;;;;;;;5.20;0.50;;;;;;;;;;5046178;28;20608;-66
2023/03/05 12:12:58;;;;;;;3.08;0.70;;;;;;;;;;5050601;28;20255;-66
2023/03/05 12:15:48;;;;;;;2.28;0.50;;;;;;;;;;5061355;28;20177;-65
2023/03/05 12:18:23;;;;;;;7.45;1.65;;;;;;;;;;5055700;28;20214;-66
2023/03/05 12:20:57;;;;;;;8.80;3.00;;;;;;;;;;5052414;28;20183;-66
2023/03/05 12:23:25;;;;;;;7.93;2.28;;;;;;;;;;5065219;28;20326;-66
2023/03/05 12:25:58;;;;;;;13.95;5.47;;;;;;;;;;5052220;28;20219;-66
2023/03/05 12:28:29;;;;;;;6.47;0.90;;;;;;;;;;5064093;28;20185;-66
2023/03/05 12:31:00;;;;;;;5.30;1.45;;;;;;;;;;5050940;28;20612;-65
2023/03/05 12:33:37;;;;;;;6.25;0.57;;;;;;;;;;5053551;28;20675;-66
2023/03/05 12:36:21;;;;;;;2.28;0.60;;;;;;;;;;5051055;28;20182;-65
2023/03/05 12:38:54;;;;;;;4.40;0.73;;;;;;;;;;5065800;28;20223;-66
2023/03/05 12:41:22;;;;;;;1.63;0.60;;;;;;;;;;5048805;28;20358;-66
2023/03/05 12:44:04;;;;;;;2.55;0.50;;;;;;;;;;5056697;28;20193;-66
2023/03/05 12:46:39;;;;;;;4.50;0.90;;;;;;;;;;5058616;28;20220;-66
2023/03/05 12:49:20;;;;;;;3.10;0.70;;;;;;;;;;5058637;28;20178;-66
2023/03/05 12:51:47;;;;;;;3.13;0.55;;;;;;;;;;5047534;28;20249;-66
2023/03/05 12:54:33;;;;;;;3.60;0.68;;;;;;;;;;5051833;28;20262;-66
2023/03/05 12:57:13;;;;;;;3.08;0.95;;;;;;;;;;5061713;28;20184;-66
2023/03/05 13:00:01;;;;;;;4.50;0.70;;;;;;;;;;5066117;28;20279;-66
2023/03/05 13:02:43;;;;;;;6.50;0.90;;;;;;;;;;5060842;28;20724;-66
2023/03/05 13:05:32;;;;;;;3.30;0.95;;;;;;;;;;5051631;28;20189;-65
2023/03/05 13:08:10;;;;;;;11.80;1.13;;;;;;;;;;5070388;28;20189;-66
2023/03/05 13:10:35;;;;;;;5.10;1.00;;;;;;;;;;5050533;28;20213;-65
2023/03/05 13:13:01;;;;;;;2.72;0.70;;;;;;;;;;5062476;28;20592;-66
2023/03/05 13:15:27;;;;;;;3.72;0.70;;;;;;;;;;5066089;28;20177;-66
2023/03/05 13:18:02;;;;;;;9.90;1.27;;;;;;;;;;5058288;28;20581;-66
2023/03/05 13:20:39;;;;;;;4.45;0.73;;;;;;;;;;5047725;28;20189;-66
2023/03/05 13:23:14;;;;;;;3.00;1.08;;;;;;;;;;5054738;28;20234;-66
2023/03/05 13:25:40;;;;;;;5.50;1.17;;;;;;;;;;5057087;28;20255;-65
2023/03/05 13:28:14;;;;;;;2.53;0.32;;;;;;;;;;5054318;28;20202;-66
2023/03/05 13:30:49;;;;;;;2.65;0.70;;;;;;;;;;5050033;28;20247;-65
2023/03/05 13:33:19;;;;;;;4.85;0.70;;;;;;;;;;5062802;28;20247;-65
2023/03/05 13:35:45;;;;;;;5.38;1.30;;;;;;;;;;5060207;28;20254;-65
2023/03/05 13:38:27;;;;;;;15.17;5.73;;;;;;;;;;5050600;28;20699;-65
2023/03/05 13:41:06;;;;;;;10.97;3.13;;;;;;;;;;5057690;28;20603;-65
2023/03/05 13:43:32;;;;;;;11.97;3.87;;;;;;;;;;5054927;28;20212;-66
2023/03/05 13:45:58;;;;;;;10.00;2.93;;;;;;;;;;5059079;28;20372;-66
2023/03/05 13:48:25;;;;;;;8.27;2.80;;;;;;;;;;5056932;28;20242;-65
2023/03/05 13:50:56;;;;;;;10.90;1.00;;;;;;;;;;5059926;28;20679;-66
2023/03/05 13:53:28;;;;;;;2.10;0.60;;;;;;;;;;5058536;28;20664;-65
2023/03/05 13:55:56;;;;;;;3.03;0.70;;;;;;;;;;5053895;28;20193;-66
2023/03/05 13:58:46;;;;;;;2.07;0.70;;;;;;;;;;5053689;28;20523;-66
2023/03/05 14:01:15;;;;;;;2.03;0.57;;;;;;;;;;5051838;28;20382;-66
2023/03/05 14:03:40;;;;;;;3.57;0.60;;;;;;;;;;5061714;28;20663;-65
2023/03/05 14:06:09;;;;;;;1.60;1.20;;;;;;;;;;5057366;28;20193;-66
2023/03/05 14:08:35;;;;;;;5.70;1.30;;;;;;;;;;5060045;28;20403;-65
2023/03/05 14:11:13;;;;;;;3.35;1.02;;;;;;;;;;5051788;28;21006;-66
2023/03/05 14:13:39;;;;;;;3.85;1.20;;;;;;;;;;5052082;28;20205;-65
2023/03/05 14:16:06;;;;;;;3.67;1.15;;;;;;;;;;5063152;28;20214;-65
2023/03/05 14:18:32;;;;;;;3.33;0.70;;;;;;;;;;5057243;28;20186;-65
2023/03/05 14:21:06;;;;;;;3.03;0.67;;;;;;;;;;5057818;28;20550;-65
2023/03/05 14:23:31;;;;;;;3.40;0.80;;;;;;;;;;5056644;28;20184;-65
2023/03/05 14:26:24;;;;;;;3.13;0.98;;;;;;;;;;5062729;28;20189;-65
2023/03/05 14:29:11;;;;;;;4.40;1.73;;;;;;;;;;5057327;28;20188;-66
2023/03/05 14:31:59;;;;;;;5.22;1.35;;;;;;;;;;5060734;28;20584;-65
2023/03/05 14:34:32;;;;;;;8.90;0.90;;;;;;;;;;5068265;28;20563;-65
2023/03/05 14:37:25;;;;;;;4.47;1.17;;;;;;;;;;5055582;28;20220;-66
2023/03/05 14:39:56;;;;;;;5.57;0.80;;;;;;;;;;5061744;28;20199;-66
2023/03/05 14:42:35;;;;;;;4.63;0.73;;;;;;;;;;4357017;28;10000723;-66
2023/03/05 14:45:14;;;;;;;4.05;0.65;;;;;;;;;;5045396;28;20235;-66
2023/03/05 14:47:39;;;;;;;6.57;0.98;;;;;;;;;;5058915;28;20246;-65
2023/03/05 14:50:07;;;;;;;2.88;0.98;;;;;;;;;;5052076;28;20841;-65
2023/03/05 14:52:33;;;;;;;7.55;1.00;;;;;;;;;;5048062;28;20190;-66
2023/03/05 14:54:59;;;;;;;3.67;1.00;;;;;;;;;;5054825;28;20503;-66